Time;durP1;ratioP1;P1;durP2;ratioP2;P2;SDS_P1;SDS_P2;PMS_P1;PMS_P2;Temp;Humidity;BMP_temperature;BMP_pressure;BME280_temperature;BME280_humidity;BME280_pressure;Samples;Min_cycle;Max_cycle;Signal;HPM_P1;HPM_P2
2023/08/11 00:01:07;;;;;;;3.03;1.90;;;;;;;;;;4999698;28;20207;-29
2023/08/11 00:03:35;;;;;;;2.80;2.10;;;;;;;;;;5002883;28;20233;-29
2023/08/11 00:06:03;;;;;;;2.43;1.60;;;;;;;;;;4997508;28;20278;-30
2023/08/11 00:08:30;;;;;;;2.60;1.90;;;;;;;;;;5000027;28;20210;-26
2023/08/11 00:10:58;;;;;;;3.40;1.83;;;;;;;;;;4988051;28;20232;-31
2023/08/11 00:13:25;;;;;;;1.70;1.60;;;;;;;;;;4990998;28;20227;-29
2023/08/11 00:15:55;;;;;;;2.30;2.10;;;;;;;;;;4995290;28;20203;-32
2023/08/11 00:18:22;;;;;;;2.00;1.80;;;;;;;;;;5007095;28;20512;-29
2023/08/11 00:20:49;;;;;;;3.70;2.20;;;;;;;;;;5003416;28;20235;-29
2023/08/11 00:23:16;;;;;;;3.30;1.90;;;;;;;;;;4992952;28;20206;-26
2023/08/11 00:25:43;;;;;;;4.07;2.30;;;;;;;;;;4987642;28;20205;-32
2023/08/11 00:28:11;;;;;;;2.00;1.80;;;;;;;;;;4985406;28;20274;-30
2023/08/11 00:30:38;;;;;;;3.93;2.30;;;;;;;;;;4995061;28;20232;-30
2023/08/11 00:33:06;;;;;;;5.20;2.20;;;;;;;;;;4998074;28;20200;-32
2023/08/11 00:35:34;;;;;;;4.67;2.10;;;;;;;;;;4990318;28;20204;-28
2023/08/11 00:38:01;;;;;;;2.57;2.20;;;;;;;;;;4995144;28;20211;-30
2023/08/11 00:40:29;;;;;;;4.43;2.13;;;;;;;;;;4999555;28;20278;-31
2023/08/11 00:42:56;;;;;;;2.87;2.20;;;;;;;;;;5003363;28;20288;-31
2023/08/11 00:45:23;;;;;;;1.90;1.80;;;;;;;;;;4998263;28;20207;-31
2023/08/11 00:47:50;;;;;;;2.30;2.10;;;;;;;;;;5001666;28;20205;-28
2023/08/11 00:50:19;;;;;;;2.07;1.83;;;;;;;;;;5003033;28;20243;-31
2023/08/11 00:52:46;;;;;;;2.13;1.93;;;;;;;;;;5002559;28;20294;-29
2023/08/11 00:55:14;;;;;;;2.37;1.90;;;;;;;;;;4994612;28;20228;-32
2023/08/11 00:57:41;;;;;;;4.40;1.83;;;;;;;;;;4993861;28;20211;-27
2023/08/11 01:00:12;;;;;;;1.87;1.63;;;;;;;;;;4990599;28;20235;-29
2023/08/11 01:02:41;;;;;;;2.17;1.97;;;;;;;;;;5000919;28;20266;-31
2023/08/11 01:05:09;;;;;;;4.53;1.97;;;;;;;;;;4991363;28;20201;-30
2023/08/11 01:07:40;;;;;;;2.97;2.07;;;;;;;;;;5005221;28;20208;-29
2023/08/11 01:10:12;;;;;;;5.33;2.17;;;;;;;;;;5003164;28;20237;-31
2023/08/11 01:12:43;;;;;;;2.50;1.80;;;;;;;;;;4998743;28;20223;-29
2023/08/11 01:15:12;;;;;;;2.17;1.60;;;;;;;;;;4988011;28;20414;-27
2023/08/11 01:17:41;;;;;;;1.83;1.73;;;;;;;;;;4992223;28;20207;-29
2023/08/11 01:20:10;;;;;;;1.90;1.80;;;;;;;;;;4986889;28;20231;-30
2023/08/11 01:22:42;;;;;;;2.50;1.90;;;;;;;;;;4987305;28;20204;-28
2023/08/11 01:25:11;;;;;;;2.13;1.93;;;;;;;;;;4992462;28;20226;-26
2023/08/11 01:27:44;;;;;;;2.93;1.80;;;;;;;;;;4990207;28;20209;-28
2023/08/11 01:30:11;;;;;;;2.30;2.13;;;;;;;;;;4995292;28;20220;-28
2023/08/11 01:32:38;;;;;;;4.67;1.93;;;;;;;;;;4995089;28;20211;-28
2023/08/11 01:35:06;;;;;;;3.37;1.90;;;;;;;;;;4998516;28;20228;-32
2023/08/11 01:37:33;;;;;;;2.20;1.90;;;;;;;;;;5002614;28;20200;-28
2023/08/11 01:40:00;;;;;;;2.23;1.97;;;;;;;;;;5002407;28;20264;-32
2023/08/11 01:42:29;;;;;;;2.47;2.27;;;;;;;;;;4991965;28;20213;-30
2023/08/11 01:44:56;;;;;;;2.53;2.10;;;;;;;;;;4994385;28;20200;-30
2023/08/11 01:47:24;;;;;;;4.23;2.10;;;;;;;;;;4996806;28;20196;-32
2023/08/11 01:49:52;;;;;;;2.30;2.00;;;;;;;;;;5002567;28;20227;-31
2023/08/11 01:52:19;;;;;;;1.80;1.70;;;;;;;;;;4998881;28;20217;-29
2023/08/11 01:54:46;;;;;;;1.97;1.83;;;;;;;;;;4999814;28;20215;-31
2023/08/11 01:57:13;;;;;;;2.40;2.20;;;;;;;;;;4996088;28;20295;-29
2023/08/11 01:59:42;;;;;;;2.10;2.00;;;;;;;;;;4996232;28;20223;-34
2023/08/11 02:02:09;;;;;;;2.20;2.00;;;;;;;;;;5007212;28;20207;-28
2023/08/11 02:04:36;;;;;;;2.13;1.70;;;;;;;;;;5007934;28;20275;-28
2023/08/11 02:07:03;;;;;;;3.83;1.60;;;;;;;;;;4998336;28;20200;-30
2023/08/11 02:09:32;;;;;;;2.73;2.13;;;;;;;;;;4990024;28;20310;-30
2023/08/11 02:11:59;;;;;;;2.00;1.90;;;;;;;;;;5005166;28;20233;-31
2023/08/11 02:14:26;;;;;;;4.67;1.97;;;;;;;;;;4990205;28;20227;-31
2023/08/11 02:16:54;;;;;;;4.47;1.90;;;;;;;;;;4997132;28;20195;-26
2023/08/11 02:19:21;;;;;;;2.67;1.83;;;;;;;;;;5005788;28;20254;-25
2023/08/11 02:21:49;;;;;;;2.43;1.80;;;;;;;;;;5003060;28;20203;-30
2023/08/11 02:24:16;;;;;;;2.10;1.90;;;;;;;;;;5001933;28;20279;-28
2023/08/11 02:26:43;;;;;;;1.97;1.87;;;;;;;;;;4998195;28;20204;-29
2023/08/11 02:29:11;;;;;;;3.93;2.17;;;;;;;;;;4987811;28;20230;-28
2023/08/11 02:31:38;;;;;;;2.40;2.20;;;;;;;;;;4989744;28;20287;-28
2023/08/11 02:34:06;;;;;;;3.07;1.77;;;;;;;;;;5000527;28;20215;-32
2023/08/11 02:36:36;;;;;;;1.57;1.47;;;;;;;;;;4993157;28;20227;-29
2023/08/11 02:39:05;;;;;;;2.00;1.90;;;;;;;;;;4989726;28;20224;-28
2023/08/11 02:41:33;;;;;;;2.20;2.00;;;;;;;;;;5009414;28;20199;-30
2023/08/11 02:44:00;;;;;;;5.30;2.50;;;;;;;;;;4992819;28;20210;-27
2023/08/11 02:46:27;;;;;;;2.33;2.13;;;;;;;;;;4996484;28;20262;-30
2023/08/11 02:48:54;;;;;;;3.00;1.80;;;;;;;;;;5005208;28;20227;-26
2023/08/11 02:51:22;;;;;;;1.80;1.70;;;;;;;;;;4994863;28;20338;-30
2023/08/11 02:53:49;;;;;;;2.30;2.10;;;;;;;;;;4995453;28;20195;-30
2023/08/11 02:56:17;;;;;;;3.23;1.77;;;;;;;;;;4997803;28;20239;-29
2023/08/11 02:58:44;;;;;;;4.07;2.30;;;;;;;;;;4994586;28;20291;-30
2023/08/11 03:01:11;;;;;;;2.00;1.90;;;;;;;;;;4998991;28;20226;-27
2023/08/11 03:03:39;;;;;;;2.07;1.87;;;;;;;;;;5000110;28;20204;-28
2023/08/11 03:06:06;;;;;;;2.50;2.30;;;;;;;;;;4992538;28;20240;-28
2023/08/11 03:08:35;;;;;;;3.93;1.93;;;;;;;;;;4997619;28;20211;-31
2023/08/11 03:11:02;;;;;;;2.60;2.20;;;;;;;;;;5004849;28;20217;-29
2023/08/11 03:13:29;;;;;;;2.00;1.80;;;;;;;;;;4989259;28;20200;-32
2023/08/11 03:15:56;;;;;;;2.97;1.90;;;;;;;;;;4988883;28;20236;-30
2023/08/11 03:18:23;;;;;;;1.90;1.80;;;;;;;;;;4992607;28;20204;-30
2023/08/11 03:20:52;;;;;;;2.30;2.10;;;;;;;;;;4991067;28;20792;-32
2023/08/11 03:23:19;;;;;;;2.00;1.80;;;;;;;;;;5003961;28;20207;-28
2023/08/11 03:25:48;;;;;;;2.47;2.20;;;;;;;;;;4994090;28;20283;-29
2023/08/11 03:28:15;;;;;;;2.23;2.03;;;;;;;;;;4984989;28;20222;-29
2023/08/11 03:30:42;;;;;;;6.27;2.07;;;;;;;;;;4995516;28;20233;-29
2023/08/11 03:33:09;;;;;;;1.90;1.80;;;;;;;;;;5003500;28;20211;-30
2023/08/11 03:35:36;;;;;;;2.53;1.87;;;;;;;;;;4998155;28;20219;-29
2023/08/11 03:38:03;;;;;;;1.67;1.57;;;;;;;;;;4999252;28;20203;-32
2023/08/11 03:40:31;;;;;;;1.90;1.80;;;;;;;;;;5000194;28;20223;-30
2023/08/11 03:42:59;;;;;;;2.20;2.03;;;;;;;;;;5004181;28;20211;-30
2023/08/11 03:45:26;;;;;;;3.10;1.93;;;;;;;;;;4992457;28;20203;-30
2023/08/11 03:47:53;;;;;;;5.50;2.50;;;;;;;;;;5007839;28;20209;-30
2023/08/11 03:50:20;;;;;;;2.60;2.07;;;;;;;;;;5006786;28;20234;-30
2023/08/11 03:52:48;;;;;;;2.27;2.03;;;;;;;;;;5000006;28;20199;-26
2023/08/11 03:55:15;;;;;;;3.10;2.20;;;;;;;;;;4995291;28;20238;-31
2023/08/11 03:57:42;;;;;;;6.60;1.90;;;;;;;;;;5003726;28;20202;-31
2023/08/11 04:00:14;;;;;;;4.30;2.07;;;;;;;;;;5007970;28;20447;-29
2023/08/11 04:02:41;;;;;;;2.20;2.00;;;;;;;;;;5008122;28;20286;-29
2023/08/11 04:05:10;;;;;;;2.40;2.17;;;;;;;;;;4999914;28;20202;-33
2023/08/11 04:07:37;;;;;;;2.10;1.90;;;;;;;;;;4997383;28;20205;-30
2023/08/11 04:10:05;;;;;;;3.97;2.20;;;;;;;;;;5001350;28;20227;-29
2023/08/11 04:12:32;;;;;;;2.77;2.30;;;;;;;;;;5002449;28;20215;-30
2023/08/11 04:15:00;;;;;;;1.97;1.87;;;;;;;;;;5003306;28;20227;-30
2023/08/11 04:17:28;;;;;;;2.10;2.00;;;;;;;;;;4996064;28;20204;-26
2023/08/11 04:19:55;;;;;;;4.23;2.17;;;;;;;;;;4989995;28;20266;-29
2023/08/11 04:22:22;;;;;;;2.50;2.30;;;;;;;;;;4996325;28;20207;-27
2023/08/11 04:24:50;;;;;;;2.30;2.10;;;;;;;;;;4995676;28;20196;-30
2023/08/11 04:27:17;;;;;;;1.90;1.73;;;;;;;;;;4993451;28;20207;-26
2023/08/11 04:29:45;;;;;;;1.93;1.83;;;;;;;;;;4992909;28;20227;-28
2023/08/11 04:32:12;;;;;;;2.40;1.90;;;;;;;;;;5007579;28;20210;-28
2023/08/11 04:34:40;;;;;;;2.40;2.00;;;;;;;;;;4998961;28;20327;-27
2023/08/11 04:37:08;;;;;;;1.93;1.77;;;;;;;;;;4994511;28;20239;-30
2023/08/11 04:39:36;;;;;;;3.07;2.20;;;;;;;;;;5003409;28;20223;-26
2023/08/11 04:42:03;;;;;;;3.50;3.20;;;;;;;;;;5007976;28;20218;-30
2023/08/11 04:44:31;;;;;;;3.97;2.10;;;;;;;;;;5002805;28;20204;-28
2023/08/11 04:46:58;;;;;;;2.20;1.93;;;;;;;;;;5003880;28;20230;-28
2023/08/11 04:49:25;;;;;;;4.73;2.80;;;;;;;;;;5008660;28;20230;-31
2023/08/11 04:51:54;;;;;;;2.30;2.10;;;;;;;;;;5002601;28;20238;-28
2023/08/11 04:54:21;;;;;;;2.50;2.30;;;;;;;;;;4999225;28;20303;-30
2023/08/11 04:56:49;;;;;;;2.30;2.10;;;;;;;;;;5005099;28;20239;-29
2023/08/11 04:59:16;;;;;;;1.83;1.73;;;;;;;;;;4993101;28;20240;-29
2023/08/11 05:01:43;;;;;;;2.60;2.00;;;;;;;;;;5004352;28;20258;-28
2023/08/11 05:04:10;;;;;;;1.90;1.77;;;;;;;;;;4991784;28;20212;-29
2023/08/11 05:06:37;;;;;;;4.50;1.80;;;;;;;;;;5005133;28;20206;-30
2023/08/11 05:09:06;;;;;;;3.40;2.30;;;;;;;;;;4994740;28;20228;-30
2023/08/11 05:11:33;;;;;;;3.43;2.10;;;;;;;;;;5010693;28;20204;-30
2023/08/11 05:14:00;;;;;;;2.50;2.30;;;;;;;;;;4993977;28;20215;-29
2023/08/11 05:16:28;;;;;;;4.80;2.47;;;;;;;;;;4991442;28;20314;-30
2023/08/11 05:18:55;;;;;;;7.67;2.33;;;;;;;;;;5000699;28;20236;-27
2023/08/11 05:21:36;;;;;;;5.93;2.23;;;;;;;;;;4994815;28;20214;-29
2023/08/11 05:24:03;;;;;;;2.73;2.30;;;;;;;;;;4991743;28;20228;-28
2023/08/11 05:26:32;;;;;;;2.57;2.00;;;;;;;;;;5009826;28;20208;-28
2023/08/11 05:28:59;;;;;;;3.33;2.20;;;;;;;;;;4990199;28;20224;-30
2023/08/11 05:31:26;;;;;;;2.90;1.97;;;;;;;;;;4989262;28;20209;-29
2023/08/11 05:33:54;;;;;;;5.70;2.27;;;;;;;;;;4987130;28;20211;-29
2023/08/11 05:36:21;;;;;;;2.77;2.23;;;;;;;;;;4996611;28;20846;-31
2023/08/11 05:38:59;;;;;;;6.83;2.03;;;;;;;;;;4997373;28;20219;-26
2023/08/11 05:41:26;;;;;;;5.87;2.67;;;;;;;;;;5004481;28;20206;-26
2023/08/11 05:43:54;;;;;;;2.87;2.10;;;;;;;;;;4992356;28;20225;-28
2023/08/11 05:46:22;;;;;;;3.83;2.30;;;;;;;;;;4999528;28;20306;-30
2023/08/11 05:48:51;;;;;;;2.50;2.10;;;;;;;;;;4992500;28;20225;-29
2023/08/11 05:51:22;;;;;;;3.60;2.20;;;;;;;;;;4999254;28;20299;-30
2023/08/11 05:53:49;;;;;;;4.33;2.30;;;;;;;;;;4996688;28;20194;-29
2023/08/11 05:56:16;;;;;;;2.20;2.00;;;;;;;;;;5003761;28;20247;-29
2023/08/11 05:58:43;;;;;;;2.67;2.20;;;;;;;;;;4998258;28;20219;-28
2023/08/11 06:01:12;;;;;;;3.03;2.70;;;;;;;;;;5002835;28;20214;-31
2023/08/11 06:03:39;;;;;;;7.67;2.60;;;;;;;;;;5005239;28;20223;-30
2023/08/11 06:06:06;;;;;;;2.57;2.37;;;;;;;;;;5003371;28;20215;-29
2023/08/11 06:08:34;;;;;;;4.70;2.83;;;;;;;;;;4990436;28;20240;-31
2023/08/11 06:11:02;;;;;;;2.40;2.20;;;;;;;;;;4991088;28;20220;-32
2023/08/11 06:13:29;;;;;;;5.17;2.57;;;;;;;;;;4998901;28;20291;-33
2023/08/11 06:15:56;;;;;;;4.80;2.50;;;;;;;;;;4992861;28;20228;-29
2023/08/11 06:18:25;;;;;;;3.17;2.40;;;;;;;;;;4989990;28;20299;-29
2023/08/11 06:20:53;;;;;;;3.03;2.53;;;;;;;;;;4993900;28;20212;-30
2023/08/11 06:23:20;;;;;;;3.43;2.70;;;;;;;;;;4998962;28;20260;-30
2023/08/11 06:25:47;;;;;;;4.33;2.50;;;;;;;;;;5003388;28;20203;-28
2023/08/11 06:28:15;;;;;;;3.07;2.43;;;;;;;;;;5001352;28;20195;-28
2023/08/11 06:30:42;;;;;;;5.83;2.83;;;;;;;;;;5001509;28;20204;-28
2023/08/11 06:33:09;;;;;;;3.67;2.50;;;;;;;;;;5001101;28;20196;-29
2023/08/11 06:35:38;;;;;;;3.90;2.80;;;;;;;;;;4998018;28;20308;-30
2023/08/11 06:38:05;;;;;;;2.97;2.43;;;;;;;;;;4994026;28;20208;-28
2023/08/11 06:40:32;;;;;;;5.37;2.90;;;;;;;;;;5003783;28;20318;-27
2023/08/11 06:42:59;;;;;;;3.67;3.13;;;;;;;;;;5001825;28;20212;-28
2023/08/11 06:45:26;;;;;;;2.97;2.70;;;;;;;;;;5002333;28;20286;-31
2023/08/11 06:47:53;;;;;;;2.33;2.17;;;;;;;;;;4996354;28;20201;-28
2023/08/11 06:50:20;;;;;;;3.33;2.80;;;;;;;;;;4996836;28;20314;-29
2023/08/11 06:52:49;;;;;;;2.87;2.67;;;;;;;;;;4997196;28;20199;-32
2023/08/11 06:55:16;;;;;;;2.80;2.60;;;;;;;;;;4993658;28;20233;-31
2023/08/11 06:57:44;;;;;;;3.17;2.67;;;;;;;;;;4996581;28;20299;-29
2023/08/11 07:00:11;;;;;;;3.77;2.37;;;;;;;;;;5003618;28;20224;-31
2023/08/11 07:02:39;;;;;;;4.23;2.87;;;;;;;;;;4995217;28;20258;-32
2023/08/11 07:05:06;;;;;;;2.80;2.60;;;;;;;;;;4998284;28;20249;-31
2023/08/11 07:07:34;;;;;;;2.87;2.67;;;;;;;;;;4997521;28;20213;-32
2023/08/11 07:10:03;;;;;;;3.03;2.73;;;;;;;;;;4997500;28;20236;-32
2023/08/11 07:12:30;;;;;;;5.37;3.10;;;;;;;;;;4992760;28;20213;-28
2023/08/11 07:14:57;;;;;;;3.67;2.90;;;;;;;;;;5003338;28;20232;-32
2023/08/11 07:17:24;;;;;;;2.90;2.67;;;;;;;;;;4994386;28;20316;-32
2023/08/11 07:19:51;;;;;;;5.53;2.87;;;;;;;;;;5002434;28;20253;-28
2023/08/11 07:22:19;;;;;;;5.33;2.77;;;;;;;;;;4996275;28;20198;-26
2023/08/11 07:24:46;;;;;;;3.50;2.53;;;;;;;;;;5001094;28;20235;-29
2023/08/11 07:27:14;;;;;;;2.70;2.50;;;;;;;;;;4990820;28;20200;-31
2023/08/11 07:29:41;;;;;;;3.87;2.53;;;;;;;;;;4995073;28;20224;-31
2023/08/11 07:32:08;;;;;;;5.40;2.67;;;;;;;;;;4993973;28;20237;-32
2023/08/11 07:34:36;;;;;;;2.97;2.53;;;;;;;;;;5001901;28;20287;-32
2023/08/11 07:37:04;;;;;;;2.50;2.30;;;;;;;;;;4991841;28;20224;-30
2023/08/11 07:39:31;;;;;;;5.63;2.90;;;;;;;;;;4992079;28;20227;-29
2023/08/11 07:42:02;;;;;;;2.72;2.53;;;;;;;;;;5001161;28;20234;-33
2023/08/11 07:44:31;;;;;;;4.18;2.22;;;;;;;;;;4996570;28;20557;-34
2023/08/11 07:46:58;;;;;;;2.72;2.38;;;;;;;;;;4995601;28;20206;-26
2023/08/11 07:49:26;;;;;;;3.42;2.55;;;;;;;;;;5011652;28;20321;-33
2023/08/11 07:51:53;;;;;;;2.50;2.30;;;;;;;;;;5011982;28;20212;-29
2023/08/11 07:54:20;;;;;;;2.60;2.40;;;;;;;;;;4994798;28;20210;-33
2023/08/11 07:56:47;;;;;;;2.22;2.03;;;;;;;;;;4998000;28;20273;-31
2023/08/11 07:59:15;;;;;;;2.28;2.10;;;;;;;;;;4996681;28;20216;-33
2023/08/11 08:01:43;;;;;;;3.75;2.53;;;;;;;;;;5004452;28;20217;-27
2023/08/11 08:04:11;;;;;;;4.20;2.35;;;;;;;;;;5001897;28;20202;-29
2023/08/11 08:06:45;;;;;;;3.10;2.78;;;;;;;;;;4994724;28;20235;-29
2023/08/11 08:09:13;;;;;;;2.50;2.30;;;;;;;;;;4999829;28;20229;-30
2023/08/11 08:11:42;;;;;;;2.67;2.45;;;;;;;;;;4991642;28;20193;-29
2023/08/11 08:14:10;;;;;;;2.15;1.83;;;;;;;;;;4992207;28;20208;-28
2023/08/11 08:16:37;;;;;;;3.58;2.50;;;;;;;;;;5003975;28;20221;-32
2023/08/11 08:19:06;;;;;;;3.92;2.22;;;;;;;;;;4994513;28;20230;-28
2023/08/11 08:21:33;;;;;;;2.60;2.40;;;;;;;;;;4996611;28;20263;-29
2023/08/11 08:24:00;;;;;;;2.83;2.38;;;;;;;;;;4995057;28;20209;-31
2023/08/11 08:26:27;;;;;;;2.30;2.10;;;;;;;;;;4991442;28;20197;-29
2023/08/11 08:28:54;;;;;;;2.60;2.38;;;;;;;;;;4990012;28;20229;-33
2023/08/11 08:31:22;;;;;;;2.20;2.10;;;;;;;;;;5004832;28;20209;-32
2023/08/11 08:33:49;;;;;;;2.53;2.30;;;;;;;;;;5005349;28;20203;-28
2023/08/11 08:36:18;;;;;;;3.58;2.63;;;;;;;;;;4997256;28;20221;-32
2023/08/11 08:38:46;;;;;;;4.88;2.60;;;;;;;;;;5010442;28;20320;-35
2023/08/11 08:41:15;;;;;;;2.17;2.03;;;;;;;;;;5010876;28;20213;-33
2023/08/11 08:43:43;;;;;;;1.98;1.88;;;;;;;;;;5001371;28;20205;-35
2023/08/11 08:46:11;;;;;;;2.03;1.90;;;;;;;;;;4988903;28;20213;-32
2023/08/11 08:48:40;;;;;;;2.30;2.10;;;;;;;;;;5001464;28;20313;-28
2023/08/11 08:51:08;;;;;;;3.80;2.30;;;;;;;;;;4996906;28;20216;-33
2023/08/11 08:53:36;;;;;;;2.10;2.00;;;;;;;;;;4996231;28;20210;-32
2023/08/11 08:56:04;;;;;;;2.22;2.03;;;;;;;;;;5007494;28;20229;-30
2023/08/11 08:58:32;;;;;;;4.53;2.20;;;;;;;;;;5003675;28;20550;-30
2023/08/11 09:01:01;;;;;;;2.13;1.80;;;;;;;;;;4990462;28;20203;-33
2023/08/11 09:03:29;;;;;;;2.88;1.92;;;;;;;;;;5001794;28;20218;-32
2023/08/11 09:05:56;;;;;;;1.98;1.73;;;;;;;;;;4992348;28;20213;-33
2023/08/11 09:08:23;;;;;;;2.25;2.05;;;;;;;;;;5008520;28;20209;-33
2023/08/11 09:10:52;;;;;;;2.10;1.90;;;;;;;;;;5000690;28;20213;-33
2023/08/11 09:13:22;;;;;;;2.08;1.88;;;;;;;;;;5005310;28;20207;-31
2023/08/11 09:15:49;;;;;;;2.72;2.20;;;;;;;;;;5007524;28;20216;-31
2023/08/11 09:18:17;;;;;;;2.88;1.70;;;;;;;;;;5007150;28;20295;-31
2023/08/11 09:20:46;;;;;;;2.58;1.80;;;;;;;;;;5007875;28;20214;-32
2023/08/11 09:23:13;;;;;;;1.80;1.70;;;;;;;;;;4993770;28;20219;-31
2023/08/11 09:25:41;;;;;;;3.38;1.90;;;;;;;;;;4998057;28;20295;-30
2023/08/11 09:28:10;;;;;;;2.10;1.90;;;;;;;;;;4994656;28;20205;-35
2023/08/11 09:30:37;;;;;;;2.17;2.00;;;;;;;;;;5008893;28;20227;-34
2023/08/11 09:33:04;;;;;;;2.10;1.90;;;;;;;;;;4997782;28;20214;-31
2023/08/11 09:35:32;;;;;;;2.35;2.15;;;;;;;;;;4991929;28;20216;-30
2023/08/11 09:37:59;;;;;;;3.03;2.05;;;;;;;;;;4989938;28;20219;-33
2023/08/11 09:40:26;;;;;;;2.15;1.95;;;;;;;;;;4989321;28;20237;-31
2023/08/11 09:42:55;;;;;;;2.15;1.88;;;;;;;;;;4997809;28;20209;-30
2023/08/11 09:45:24;;;;;;;1.90;1.80;;;;;;;;;;4991235;28;20223;-32
2023/08/11 09:47:51;;;;;;;2.50;2.30;;;;;;;;;;4997528;28;20248;-30
2023/08/11 09:50:22;;;;;;;3.90;2.05;;;;;;;;;;4990297;28;20230;-32
2023/08/11 09:52:50;;;;;;;3.42;2.13;;;;;;;;;;4997591;28;20228;-29
2023/08/11 09:55:18;;;;;;;2.20;2.00;;;;;;;;;;4989747;28;20211;-31
2023/08/11 09:57:45;;;;;;;2.28;2.10;;;;;;;;;;4985549;28;20233;-32
2023/08/11 10:00:13;;;;;;;2.15;1.95;;;;;;;;;;4999082;28;20227;-31
2023/08/11 10:02:45;;;;;;;4.05;2.65;;;;;;;;;;5001515;28;20227;-35
2023/08/11 10:05:12;;;;;;;2.28;2.13;;;;;;;;;;4999070;28;20205;-33
2023/08/11 10:07:40;;;;;;;2.72;2.17;;;;;;;;;;4987420;28;20217;-34
2023/08/11 10:10:12;;;;;;;2.38;2.20;;;;;;;;;;4987322;28;20239;-30
2023/08/11 10:12:40;;;;;;;5.05;2.13;;;;;;;;;;4987644;28;20217;-30
2023/08/11 10:15:08;;;;;;;4.50;2.25;;;;;;;;;;5004779;28;20273;-31
2023/08/11 10:17:36;;;;;;;2.30;2.10;;;;;;;;;;4996977;28;20294;-32
2023/08/11 10:20:07;;;;;;;2.13;2.03;;;;;;;;;;4990198;28;20246;-31
2023/08/11 10:22:34;;;;;;;3.92;2.40;;;;;;;;;;4992755;28;20208;-33
2023/08/11 10:25:02;;;;;;;2.50;2.30;;;;;;;;;;4995681;28;20214;-31
2023/08/11 10:27:30;;;;;;;2.67;2.47;;;;;;;;;;4988640;28;20202;-29
2023/08/11 10:29:57;;;;;;;2.20;1.98;;;;;;;;;;4989377;28;20226;-31
2023/08/11 10:32:24;;;;;;;2.75;2.35;;;;;;;;;;4995133;28;20205;-31
2023/08/11 10:34:51;;;;;;;2.92;2.28;;;;;;;;;;5001757;28;20208;-29
2023/08/11 10:37:25;;;;;;;2.53;1.92;;;;;;;;;;5002850;28;20564;-32
2023/08/11 10:40:02;;;;;;;2.20;2.00;;;;;;;;;;5006606;28;20236;-32
2023/08/11 10:42:30;;;;;;;2.40;2.20;;;;;;;;;;4998638;28;20211;-32
2023/08/11 10:45:07;;;;;;;2.33;2.15;;;;;;;;;;5001288;28;20211;-33
2023/08/11 10:47:34;;;;;;;2.47;2.28;;;;;;;;;;4995519;28;20185;-30
2023/08/11 10:50:03;;;;;;;2.25;1.75;;;;;;;;;;5013477;28;20238;-31
2023/08/11 10:52:34;;;;;;;2.95;2.28;;;;;;;;;;5009532;28;20331;-33
2023/08/11 10:55:03;;;;;;;3.30;2.28;;;;;;;;;;4992861;28;20233;-30
2023/08/11 10:57:31;;;;;;;2.83;2.10;;;;;;;;;;4992209;28;20288;-30
2023/08/11 10:59:58;;;;;;;2.35;2.15;;;;;;;;;;5000518;28;20225;-33
2023/08/11 11:02:32;;;;;;;2.72;2.42;;;;;;;;;;4997384;28;20211;-30
2023/08/11 11:05:01;;;;;;;2.05;1.95;;;;;;;;;;5005910;28;20257;-28
2023/08/11 11:07:28;;;;;;;2.40;2.20;;;;;;;;;;5004833;28;20208;-31
2023/08/11 11:09:57;;;;;;;2.33;2.13;;;;;;;;;;5011061;28;20415;-29
2023/08/11 11:12:24;;;;;;;2.60;2.33;;;;;;;;;;4995890;28;20240;-27
2023/08/11 11:14:51;;;;;;;3.80;2.40;;;;;;;;;;4996745;28;20208;-26
2023/08/11 11:17:18;;;;;;;3.53;2.30;;;;;;;;;;5010143;28;20239;-29
2023/08/11 11:19:46;;;;;;;2.30;2.10;;;;;;;;;;5002890;28;20238;-27
2023/08/11 11:22:14;;;;;;;3.47;2.30;;;;;;;;;;4996197;28;20200;-30
2023/08/11 11:24:41;;;;;;;2.35;2.10;;;;;;;;;;5004257;28;20206;-27
2023/08/11 11:27:10;;;;;;;2.13;1.92;;;;;;;;;;5005109;28;20204;-27
2023/08/11 11:29:38;;;;;;;2.50;2.30;;;;;;;;;;5003910;28;20221;-29
2023/08/11 11:32:06;;;;;;;2.53;2.25;;;;;;;;;;5009974;28;20215;-29
2023/08/11 11:34:36;;;;;;;2.70;1.98;;;;;;;;;;4993410;28;20274;-29
2023/08/11 11:37:03;;;;;;;2.55;2.22;;;;;;;;;;5007119;28;20224;-28
2023/08/11 11:39:31;;;;;;;3.80;2.13;;;;;;;;;;4999904;28;20234;-29
2023/08/11 11:42:06;;;;;;;2.40;2.08;;;;;;;;;;4998574;28;20564;-29
2023/08/11 11:44:34;;;;;;;2.20;1.80;;;;;;;;;;5007458;28;20207;-28
2023/08/11 11:47:01;;;;;;;2.22;1.70;;;;;;;;;;5008574;28;20201;-28
2023/08/11 11:49:31;;;;;;;1.88;1.70;;;;;;;;;;5002912;28;20228;-29
2023/08/11 11:51:58;;;;;;;2.05;1.75;;;;;;;;;;5005139;28;20258;-33
2023/08/11 11:54:28;;;;;;;1.85;1.60;;;;;;;;;;5003692;28;20230;-30
2023/08/11 11:56:55;;;;;;;1.40;1.30;;;;;;;;;;5003459;28;20234;-28
2023/08/11 11:59:23;;;;;;;1.50;1.38;;;;;;;;;;4995889;28;20223;-26
2023/08/11 12:01:52;;;;;;;1.80;1.70;;;;;;;;;;5011677;28;20228;-29
2023/08/11 12:04:19;;;;;;;1.52;1.42;;;;;;;;;;4997454;28;20287;-28
2023/08/11 12:06:46;;;;;;;1.42;1.33;;;;;;;;;;5010554;28;20211;-28
2023/08/11 12:09:13;;;;;;;1.50;1.40;;;;;;;;;;5006949;28;20227;-30
2023/08/11 12:11:40;;;;;;;1.60;1.50;;;;;;;;;;4998426;28;20298;-27
2023/08/11 12:14:08;;;;;;;1.70;1.60;;;;;;;;;;5003955;28;20206;-30
2023/08/11 12:16:43;;;;;;;1.45;1.35;;;;;;;;;;5005173;28;20213;-27
2023/08/11 12:19:12;;;;;;;1.58;1.48;;;;;;;;;;5007184;28;20491;-28
2023/08/11 12:21:39;;;;;;;1.30;1.20;;;;;;;;;;5005542;28;20298;-31
2023/08/11 12:24:09;;;;;;;2.15;1.45;;;;;;;;;;5005818;28;20206;-28
2023/08/11 12:26:36;;;;;;;3.42;1.38;;;;;;;;;;4999756;28;20215;-27
2023/08/11 12:29:05;;;;;;;1.63;1.52;;;;;;;;;;4996463;28;20222;-29
2023/08/11 12:31:32;;;;;;;4.55;1.50;;;;;;;;;;5010415;28;20206;-30
2023/08/11 12:33:59;;;;;;;2.22;1.40;;;;;;;;;;4999354;28;20197;-29
2023/08/11 12:36:34;;;;;;;1.17;1.17;;;;;;;;;;4991066;28;20209;-29
2023/08/11 12:39:01;;;;;;;1.73;1.63;;;;;;;;;;5002701;28;20233;-30
2023/08/11 12:41:31;;;;;;;2.00;1.20;;;;;;;;;;5003656;28;20211;-29
2023/08/11 12:43:58;;;;;;;2.22;1.42;;;;;;;;;;4996365;28;20210;-30
2023/08/11 12:46:26;;;;;;;1.40;1.30;;;;;;;;;;4999114;28;20201;-26
2023/08/11 12:48:53;;;;;;;2.08;1.30;;;;;;;;;;5010829;28;20230;-29
2023/08/11 12:51:20;;;;;;;1.88;1.60;;;;;;;;;;5001267;28;20321;-31
2023/08/11 12:53:48;;;;;;;1.50;1.40;;;;;;;;;;5000269;28;20204;-26
2023/08/11 12:56:15;;;;;;;1.38;1.30;;;;;;;;;;4995747;28;20210;-32
2023/08/11 12:58:43;;;;;;;1.33;1.23;;;;;;;;;;4991232;28;20223;-29
2023/08/11 13:01:11;;;;;;;1.88;1.48;;;;;;;;;;4989659;28;20215;-29
2023/08/11 13:03:38;;;;;;;1.35;1.25;;;;;;;;;;4995451;28;20218;-28
2023/08/11 13:06:05;;;;;;;1.52;1.42;;;;;;;;;;4991359;28;20213;-27
2023/08/11 13:08:32;;;;;;;1.80;1.25;;;;;;;;;;4998657;28;20214;-27
2023/08/11 13:11:00;;;;;;;2.00;1.25;;;;;;;;;;4989619;28;20218;-31
2023/08/11 13:13:27;;;;;;;1.40;1.30;;;;;;;;;;4993409;28;20202;-29
2023/08/11 13:15:55;;;;;;;1.85;1.65;;;;;;;;;;4992695;28;20213;-30
2023/08/11 13:18:22;;;;;;;1.40;1.27;;;;;;;;;;5005879;28;20241;-30
2023/08/11 13:20:49;;;;;;;1.27;1.23;;;;;;;;;;4992616;28;20202;-27
2023/08/11 13:23:16;;;;;;;1.25;1.20;;;;;;;;;;5005536;28;20223;-28
2023/08/11 13:25:43;;;;;;;1.40;1.30;;;;;;;;;;4994871;28;20211;-28
2023/08/11 13:28:11;;;;;;;2.28;1.23;;;;;;;;;;4998027;28;20269;-31
2023/08/11 13:30:39;;;;;;;1.52;1.42;;;;;;;;;;5006562;28;20288;-30
2023/08/11 13:33:06;;;;;;;1.52;1.42;;;;;;;;;;4999902;28;20218;-30
2023/08/11 13:35:33;;;;;;;2.28;1.38;;;;;;;;;;5002310;28;20212;-27
2023/08/11 13:38:00;;;;;;;1.10;1.10;;;;;;;;;;5001895;28;20235;-30
2023/08/11 13:40:27;;;;;;;1.35;1.30;;;;;;;;;;4995231;28;20226;-29
2023/08/11 13:42:54;;;;;;;1.40;1.30;;;;;;;;;;4995138;28;20211;-30
2023/08/11 13:45:23;;;;;;;3.00;1.30;;;;;;;;;;4999978;28;20211;-28
2023/08/11 13:47:50;;;;;;;1.48;1.38;;;;;;;;;;5005217;28;20206;-28
2023/08/11 13:50:17;;;;;;;3.67;1.48;;;;;;;;;;4992732;28;20324;-30
2023/08/11 13:52:44;;;;;;;3.00;1.33;;;;;;;;;;4996037;28;20209;-30
2023/08/11 13:55:11;;;;;;;1.38;1.27;;;;;;;;;;5000182;28;20221;-30
2023/08/11 13:57:38;;;;;;;1.60;1.50;;;;;;;;;;5004915;28;20239;-30
2023/08/11 14:00:08;;;;;;;1.27;1.17;;;;;;;;;;4997424;28;20458;-29
2023/08/11 14:02:36;;;;;;;2.38;1.50;;;;;;;;;;4992407;28;20211;-29
2023/08/11 14:05:04;;;;;;;1.40;1.30;;;;;;;;;;5000833;28;20207;-28
2023/08/11 14:07:31;;;;;;;1.38;1.25;;;;;;;;;;5002236;28;20199;-29
2023/08/11 14:09:58;;;;;;;1.55;1.45;;;;;;;;;;5005424;28;20237;-32
2023/08/11 14:12:25;;;;;;;1.27;1.20;;;;;;;;;;4986604;28;20723;-28
2023/08/11 14:14:52;;;;;;;1.40;1.30;;;;;;;;;;4997779;28;20217;-29
2023/08/11 14:17:19;;;;;;;1.10;1.10;;;;;;;;;;4998510;28;20209;-29
2023/08/11 14:19:48;;;;;;;1.25;1.25;;;;;;;;;;4991459;28;20228;-29
2023/08/11 14:22:15;;;;;;;1.58;1.40;;;;;;;;;;5000561;28;20205;-29
2023/08/11 14:24:42;;;;;;;1.40;1.30;;;;;;;;;;5007869;28;20220;-30
2023/08/11 14:27:20;;;;;;;1.02;1.02;;;;;;;;;;4997193;28;20242;-28
2023/08/11 14:29:48;;;;;;;1.58;1.48;;;;;;;;;;5001796;28;20249;-28
2023/08/11 14:32:15;;;;;;;1.25;1.23;;;;;;;;;;5006260;28;20203;-32
2023/08/11 14:34:42;;;;;;;1.58;1.30;;;;;;;;;;5002383;28;20202;-29
2023/08/11 14:37:10;;;;;;;1.33;1.23;;;;;;;;;;4998145;28;20210;-31
2023/08/11 14:39:37;;;;;;;1.30;1.20;;;;;;;;;;4998593;28;20235;-28
2023/08/11 14:42:05;;;;;;;1.33;1.23;;;;;;;;;;4998976;28;20211;-27
2023/08/11 14:44:32;;;;;;;1.17;1.17;;;;;;;;;;4999323;28;20211;-30
2023/08/11 14:46:59;;;;;;;1.60;1.40;;;;;;;;;;4997157;28;20208;-31